createdAt,value
2023-11-15T00:41:19.349Z,98336.23
2023-11-15T00:43:24.113Z,98333.85
2023-11-15T00:45:28.941Z,98336.29
2023-11-15T00:55:14.949Z,98340.54
2023-11-15T00:57:19.564Z,98345.75
2023-11-15T00:59:24.365Z,98351.46
2023-11-15T01:01:29.050Z,98339.98
2023-11-15T01:03:33.807Z,98337.44
2023-11-15T01:05:38.566Z,98337.30
2023-11-15T01:07:43.312Z,98343.10
2023-11-15T01:09:47.945Z,98334.33
2023-11-15T01:11:52.815Z,98331.13
2023-11-15T01:13:58.105Z,98330.55
2023-11-15T01:16:03.054Z,98340.80
2023-11-15T01:18:07.945Z,98340.02
2023-11-15T01:20:13.109Z,98345.86
2023-11-15T01:22:20.764Z,98342.08
2023-11-15T01:24:25.909Z,98328.71
2023-11-15T01:26:30.715Z,98323.98
2023-11-15T01:28:35.511Z,98325.94
2023-11-15T01:30:40.177Z,98334.38
2023-11-15T01:32:44.821Z,98340.52
2023-11-15T01:34:49.579Z,98340.64
2023-11-15T01:36:54.207Z,98339.79
2023-11-15T01:38:58.914Z,98341.90
2023-11-15T01:41:03.750Z,98338.24
2023-11-15T01:43:09.420Z,98334.54
2023-11-15T01:45:14.176Z,98332.10
2023-11-15T01:47:18.932Z,98335.13
2023-11-15T01:49:24.263Z,98327.84
2023-11-15T01:51:28.878Z,98321.41
2023-11-15T01:53:34.030Z,98321.98
2023-11-15T01:55:39.357Z,98322.99
2023-11-15T01:57:44.538Z,98319.57
2023-11-15T01:59:49.722Z,98311.11
2023-11-15T02:01:55.068Z,98329.29
2023-11-15T02:03:59.801Z,98315.31
2023-11-15T02:06:05.296Z,98319.17
2023-11-15T02:08:10.070Z,98330.52
2023-11-15T02:10:14.979Z,98330.92
2023-11-15T02:12:19.738Z,98328.54
2023-11-15T02:14:24.488Z,98328.08
2023-11-15T02:16:29.361Z,98325.73
2023-11-15T02:18:34.700Z,98315.84
2023-11-15T02:20:39.451Z,98313.66
2023-11-15T02:22:49.197Z,98312.50
2023-11-15T02:24:54.314Z,98309.48
2023-11-15T02:26:59.055Z,98312.65
2023-11-15T02:29:04.150Z,98300.63
2023-11-15T02:31:09.113Z,98304.01
2023-11-15T02:33:13.891Z,98300.90
2023-11-15T02:35:18.706Z,98295.75
2023-11-15T02:37:23.419Z,98305.05
2023-11-15T02:39:28.197Z,98293.35
2023-11-15T02:41:33.080Z,98293.34
2023-11-15T02:43:37.882Z,98304.02
2023-11-15T02:45:42.706Z,98301.12
2023-11-15T02:47:47.425Z,98307.87
2023-11-15T02:49:52.092Z,98307.95
2023-11-15T02:51:56.748Z,98307.84
2023-11-15T02:54:01.464Z,98303.97
2023-11-15T02:56:07.160Z,98319.47
2023-11-15T02:58:11.754Z,98313.37
2023-11-15T03:00:17.734Z,98321.27
2023-11-15T03:02:22.385Z,98326.70
2023-11-15T03:04:26.987Z,98323.61
2023-11-15T03:06:34.669Z,98322.04
2023-11-15T03:08:39.444Z,98323.82
2023-11-15T03:10:44.336Z,98322.10
2023-11-15T03:12:49.058Z,98320.98
2023-11-15T03:14:54.488Z,98322.47
2023-11-15T03:17:05.985Z,98321.39
2023-11-15T03:19:11.065Z,98328.89
2023-11-15T03:21:16.105Z,98334.83
2023-11-15T03:23:21.899Z,98334.85
2023-11-15T03:25:26.845Z,98338.66
2023-11-15T03:27:31.475Z,98339.45
2023-11-15T03:29:36.128Z,98341.89
2023-11-15T03:31:40.680Z,98341.31
2023-11-15T03:33:45.443Z,98339.04
2023-11-15T03:35:50.147Z,98344.02
2023-11-15T03:37:55.044Z,98342.78
2023-11-15T03:39:59.744Z,98331.33
2023-11-15T03:42:04.779Z,98334.39
2023-11-15T03:44:09.523Z,98346.05
2023-11-15T03:46:17.096Z,98336.60
2023-11-15T03:48:21.897Z,98342.41
2023-11-15T03:50:26.603Z,98350.07
2023-11-15T03:52:31.338Z,98349.42
2023-11-15T03:54:35.986Z,98337.55
2023-11-15T03:56:40.615Z,98342.11
2023-11-15T03:58:45.296Z,98337.02
2023-11-15T04:00:49.951Z,98345.80
2023-11-15T04:02:54.817Z,98367.30
2023-11-15T04:04:59.653Z,98364.08
2023-11-15T04:07:04.452Z,98376.02
2023-11-15T04:09:09.079Z,98368.63
2023-11-15T04:11:14.971Z,98366.80
2023-11-15T04:13:19.786Z,98370.51
2023-11-15T04:15:24.462Z,98362.11
2023-11-15T04:17:29.168Z,98358.50
2023-11-15T04:19:33.907Z,98364.65
2023-11-15T04:21:38.774Z,98343.50
2023-11-15T04:23:43.471Z,98354.45
2023-11-15T04:25:48.398Z,98348.55
2023-11-15T04:27:53.633Z,98350.25
2023-11-15T04:29:58.494Z,98363.91
2023-11-15T04:32:03.227Z,98362.29
2023-11-15T04:34:07.989Z,98354.80
2023-11-15T04:36:12.955Z,98356.88
2023-11-15T04:38:17.606Z,98368.54
2023-11-15T04:40:22.483Z,98356.08
2023-11-15T04:42:27.233Z,98354.52
2023-11-15T04:44:32.089Z,98358.41
2023-11-15T04:46:39.866Z,98375.29
2023-11-15T04:48:44.547Z,98369.45
2023-11-15T04:50:49.272Z,98382.04
2023-11-15T04:52:58.719Z,98371.55
2023-11-15T04:55:05.516Z,98378.67
2023-11-15T04:57:10.299Z,98372.52
2023-11-15T04:59:17.881Z,98383.45
2023-11-15T05:01:22.644Z,98367.08
2023-11-15T05:03:27.387Z,98372.39
2023-11-15T05:05:32.144Z,98365.30
2023-11-15T05:07:36.781Z,98375.04
2023-11-15T05:09:41.387Z,98378.38
2023-11-15T05:11:46.006Z,98375.45
2023-11-15T05:13:50.637Z,98383.79
2023-11-15T05:15:55.472Z,98392.69
2023-11-15T05:18:00.277Z,98381.96
2023-11-15T05:20:05.470Z,98393.07
2023-11-15T05:22:10.313Z,98400.00
2023-11-15T05:24:15.004Z,98403.37
2023-11-15T05:26:19.671Z,98419.13
2023-11-15T05:28:24.257Z,98411.10
2023-11-15T05:30:28.898Z,98412.46
2023-11-15T05:32:33.558Z,98411.80
2023-11-15T05:34:38.186Z,98418.60
2023-11-15T05:36:42.870Z,98407.42
2023-11-15T05:38:47.500Z,98407.02
2023-11-15T05:40:52.161Z,98406.73
2023-11-15T05:42:57.117Z,98411.86
2023-11-15T05:45:01.919Z,98426.89
2023-11-15T05:47:06.831Z,98430.86
2023-11-15T05:49:11.483Z,98426.92
2023-11-15T05:51:16.110Z,98431.14
2023-11-15T05:53:20.747Z,98440.61
2023-11-15T05:55:25.460Z,98423.48
2023-11-15T05:57:30.097Z,98430.77
2023-11-15T05:59:34.827Z,98439.68
2023-11-15T06:01:40.686Z,98448.44
2023-11-15T06:03:45.424Z,98451.80
2023-11-15T06:05:50.197Z,98450.34
2023-11-15T06:07:54.834Z,98471.56
2023-11-15T06:09:59.555Z,98467.04
2023-11-15T06:12:04.654Z,98462.52
2023-11-15T06:14:09.507Z,98469.34
2023-11-15T06:16:14.140Z,98483.67
2023-11-15T06:18:18.849Z,98469.64
2023-11-15T06:20:23.510Z,98486.02
2023-11-15T06:22:28.251Z,98490.86
2023-11-15T06:24:32.847Z,98487.89
2023-11-15T06:26:40.754Z,98502.02
2023-11-15T06:28:45.408Z,98500.76
2023-11-15T06:30:50.190Z,98505.13
2023-11-15T06:32:55.005Z,98519.80
2023-11-15T06:34:59.717Z,98506.91
2023-11-15T06:37:04.449Z,98530.95
2023-11-15T06:39:09.193Z,98536.22
2023-11-15T06:41:13.851Z,98530.61
2023-11-15T06:43:18.457Z,98532.57
2023-11-15T06:45:23.145Z,98551.84
2023-11-15T06:47:27.850Z,98556.58
2023-11-15T06:49:32.713Z,98574.84
2023-11-15T06:51:37.563Z,98568.48
2023-11-15T06:53:42.371Z,98584.00
2023-11-15T06:55:47.084Z,98574.50
2023-11-15T06:57:51.744Z,98583.19
2023-11-15T06:59:57.661Z,98571.66
2023-11-15T07:02:02.341Z,98577.40
2023-11-15T07:04:07.301Z,98586.95
2023-11-15T07:06:13.747Z,98583.16
2023-11-15T07:08:21.122Z,98586.86
2023-11-15T07:10:25.796Z,98589.91
2023-11-15T07:12:30.493Z,98609.52
2023-11-15T07:14:35.651Z,98604.55
2023-11-15T07:16:44.257Z,98625.52
2023-11-15T07:18:48.991Z,98619.39
2023-11-15T07:20:53.639Z,98635.27
2023-11-15T07:22:58.245Z,98627.16
2023-11-15T07:25:02.870Z,98636.81
2023-11-15T07:27:07.793Z,98635.07
2023-11-15T07:29:14.815Z,98648.48
2023-11-15T07:31:19.614Z,98659.11
2023-11-15T07:33:24.553Z,98671.77
2023-11-15T07:35:29.366Z,98666.40
2023-11-15T07:37:34.004Z,98677.48
2023-11-15T07:39:38.704Z,98687.48
2023-11-15T07:41:43.368Z,98705.13
2023-11-15T07:43:47.941Z,98698.60
2023-11-15T07:45:52.843Z,98710.91
2023-11-15T07:47:57.845Z,98712.80
2023-11-15T07:50:02.544Z,98707.70
2023-11-15T07:52:07.592Z,98719.23
2023-11-15T07:54:12.780Z,98733.39
2023-11-15T07:56:17.821Z,98724.86
2023-11-15T07:58:22.491Z,98738.35
2023-11-15T08:00:27.154Z,98744.27
2023-11-15T08:02:31.880Z,98748.02
2023-11-15T08:04:36.764Z,98747.83
2023-11-15T08:06:41.454Z,98754.36
2023-11-15T08:08:46.229Z,98761.83
2023-11-15T08:10:51.124Z,98767.73
2023-11-15T08:12:55.753Z,98768.02
2023-11-15T08:15:00.421Z,98785.96
2023-11-15T08:17:05.363Z,98782.92
2023-11-15T08:19:10.104Z,98794.13
2023-11-15T08:21:14.832Z,98788.27
2023-11-15T08:23:19.996Z,98782.71
2023-11-15T08:25:24.817Z,98809.38
2023-11-15T08:27:29.412Z,98797.52
2023-11-15T08:29:34.114Z,98808.89
2023-11-15T08:31:38.920Z,98802.52
2023-11-15T08:33:43.701Z,98810.95
2023-11-15T08:35:49.089Z,98827.23
2023-11-15T08:37:53.850Z,98827.19
2023-11-15T08:39:58.529Z,98822.44
2023-11-15T08:42:03.466Z,98824.16
2023-11-15T08:44:08.572Z,98830.15
2023-11-15T08:46:13.207Z,98837.48
2023-11-15T08:48:17.993Z,98836.42
2023-11-15T08:50:22.746Z,98844.30
2023-11-15T08:52:27.422Z,98847.77
2023-11-15T08:54:32.174Z,98856.65
2023-11-15T08:56:36.924Z,98838.76
2023-11-15T08:58:41.622Z,98839.90
2023-11-15T09:00:46.769Z,98855.90
2023-11-15T09:02:51.618Z,98850.17
2023-11-15T09:04:56.445Z,98847.30
2023-11-15T09:07:01.249Z,98854.31
2023-11-15T09:09:09.150Z,98850.45
2023-11-15T09:11:14.614Z,98846.30
2023-11-15T09:13:19.372Z,98854.73
2023-11-15T09:15:24.155Z,98850.98
2023-11-15T09:17:29.007Z,98848.45
2023-11-15T09:19:36.801Z,98845.41
2023-11-15T09:21:43.404Z,98848.41
2023-11-15T09:23:48.391Z,98839.96
2023-11-15T09:25:53.272Z,98845.12
2023-11-15T09:28:00.938Z,98843.98
2023-11-15T09:30:06.739Z,98837.48
2023-11-15T09:32:11.424Z,98834.65
2023-11-15T09:34:16.634Z,98828.05
2023-11-15T09:36:21.393Z,98829.91
2023-11-15T09:38:26.118Z,98852.14
2023-11-15T09:40:30.767Z,98848.94
2023-11-15T09:42:36.212Z,98849.86
2023-11-15T09:44:42.146Z,98827.20
2023-11-15T09:46:47.590Z,98841.20
2023-11-15T09:48:57.354Z,98830.13
2023-11-15T09:51:07.131Z,98818.73
2023-11-15T09:53:11.816Z,98824.32
2023-11-15T09:55:17.020Z,98817.02
2023-11-15T09:57:21.707Z,98817.82
2023-11-15T09:59:26.734Z,98816.50
2023-11-15T10:01:32.046Z,98815.83
2023-11-15T10:03:42.344Z,98811.86
2023-11-15T10:05:57.589Z,98814.81
2023-11-15T10:08:12.715Z,98814.67
2023-11-15T10:10:21.650Z,98827.67
2023-11-15T10:12:33.485Z,98811.14
2023-11-15T10:14:52.598Z,98809.33
2023-11-15T10:16:57.399Z,98807.78
2023-11-15T10:19:02.003Z,98809.56
2023-11-15T10:21:10.981Z,98788.13
2023-11-15T10:23:29.163Z,98775.97
2023-11-15T10:25:46.631Z,98761.34
2023-11-15T10:27:51.282Z,98768.78
2023-11-15T10:29:55.895Z,98774.98
2023-11-15T10:32:01.934Z,98782.17
2023-11-15T10:34:12.931Z,98790.30
2023-11-15T10:36:21.987Z,98766.10
2023-11-15T10:38:26.783Z,98788.80
2023-11-15T10:40:31.680Z,98776.42
2023-11-15T10:42:37.888Z,98764.77
2023-11-15T10:44:43.617Z,98770.60
2023-11-15T10:46:49.786Z,98767.84
2023-11-15T10:48:55.428Z,98788.03
2023-11-15T10:51:02.846Z,98789.00
2023-11-15T10:53:08.266Z,98796.63
2023-11-15T10:55:13.653Z,98767.17
2023-11-15T10:57:19.146Z,98768.73
2023-11-15T10:59:25.750Z,98775.97
2023-11-15T11:01:32.184Z,98777.23
2023-11-15T11:03:37.469Z,98779.56
2023-11-15T11:05:47.147Z,98770.72
2023-11-15T11:08:00.774Z,98782.84
2023-11-15T11:10:14.758Z,98769.17
2023-11-15T11:12:21.169Z,98777.38
2023-11-15T11:14:25.912Z,98778.65
2023-11-15T11:16:35.158Z,98772.13
2023-11-15T11:18:40.978Z,98781.98
2023-11-15T11:20:59.674Z,98785.11
2023-11-15T11:23:14.534Z,98777.55
2023-11-15T11:25:25.973Z,98786.45
2023-11-15T11:27:35.081Z,98788.76
2023-11-15T11:30:17.692Z,98793.00
2023-11-15T11:32:24.688Z,98787.05
2023-11-15T11:34:29.430Z,98801.23
2023-11-15T11:36:51.916Z,98792.17
2023-11-15T11:38:57.096Z,98781.09
2023-11-15T11:41:02.195Z,98770.20
2023-11-15T11:43:23.533Z,98769.00
2023-11-15T11:45:29.633Z,98769.61
2023-11-15T11:47:40.889Z,98784.63
2023-11-15T11:49:49.030Z,98792.02
2023-11-15T11:51:54.116Z,98784.98
2023-11-15T11:53:58.944Z,98779.83
2023-11-15T11:56:09.197Z,98779.14
2023-11-15T11:58:14.644Z,98790.42
2023-11-15T12:00:22.363Z,98771.98
2023-11-15T12:02:35.814Z,98777.48
2023-11-15T12:04:46.788Z,98775.02
2023-11-15T12:06:51.652Z,98780.65
2023-11-15T12:08:56.440Z,98775.04
2023-11-15T12:11:01.906Z,98773.61
2023-11-15T12:13:08.362Z,98797.52
2023-11-15T12:15:14.247Z,98796.66
2023-11-15T12:17:19.100Z,98786.83
2023-11-15T12:19:24.811Z,98784.98
2023-11-15T12:21:29.757Z,98795.07
2023-11-15T12:23:34.585Z,98795.91
2023-11-15T12:25:50.476Z,98811.02
2023-11-15T12:27:58.265Z,98793.46
2023-11-15T12:30:03.748Z,98795.35
2023-11-15T12:32:09.299Z,98805.59
2023-11-15T12:34:14.588Z,98805.50
2023-11-15T12:36:19.526Z,98815.05
2023-11-15T12:38:24.227Z,98830.09
2023-11-15T12:40:30.179Z,98813.82
2023-11-15T12:42:34.922Z,98835.81
2023-11-15T12:44:47.165Z,98836.04
2023-11-15T12:46:55.249Z,98829.01
2023-11-15T12:49:00.723Z,98826.42
2023-11-15T12:51:07.826Z,98848.11
2023-11-15T12:53:13.520Z,98832.97
2023-11-15T12:55:34.386Z,98837.34
2023-11-15T12:57:52.901Z,98852.38
2023-11-15T12:59:57.600Z,98866.65
2023-11-15T13:02:02.441Z,98852.02
2023-11-15T13:04:07.631Z,98852.02
2023-11-15T13:06:14.830Z,98855.46
2023-11-15T13:08:19.703Z,98859.06
2023-11-15T13:10:24.326Z,98865.70
2023-11-15T13:12:29.020Z,98883.02
2023-11-15T13:14:33.656Z,98876.80
2023-11-15T13:16:38.430Z,98881.42
2023-11-15T13:18:44.733Z,98892.62
2023-11-15T13:20:49.383Z,98905.27
2023-11-15T13:22:54.110Z,98887.46
2023-11-15T13:24:58.937Z,98898.14
2023-11-15T13:27:03.745Z,98910.93
2023-11-15T13:29:08.378Z,98914.78
2023-11-15T13:31:16.999Z,98920.86
2023-11-15T13:33:23.536Z,98930.79
2023-11-15T13:35:28.418Z,98929.14
2023-11-15T13:37:33.150Z,98923.92
2023-11-15T13:39:37.875Z,98929.48
2023-11-15T13:41:42.565Z,98927.70
2023-11-15T13:43:47.570Z,98927.52
2023-11-15T13:45:52.327Z,98935.73
2023-11-15T13:47:57.005Z,98936.95
2023-11-15T13:50:01.731Z,98933.20
2023-11-15T13:52:06.703Z,98929.74
2023-11-15T13:54:11.431Z,98937.29
2023-11-15T13:56:16.124Z,98938.71
2023-11-15T13:58:20.743Z,98939.53
2023-11-15T14:00:25.961Z,98944.11
2023-11-15T14:02:31.019Z,98949.42
2023-11-15T14:04:35.786Z,98944.52
2023-11-15T14:06:40.547Z,98948.85
2023-11-15T14:08:52.179Z,98952.70
2023-11-15T14:11:03.480Z,98946.34
2023-11-15T14:13:08.995Z,98947.95
2023-11-15T14:15:13.898Z,98948.42
2023-11-15T14:17:21.363Z,98948.52
2023-11-15T14:19:28.670Z,98952.88
2023-11-15T14:21:33.416Z,98953.60
2023-11-15T14:23:38.067Z,98960.45
2023-11-15T14:25:42.998Z,98977.70
2023-11-15T14:27:49.659Z,98971.66
2023-11-15T14:29:56.376Z,98984.78
2023-11-15T14:32:01.026Z,98982.48
2023-11-15T14:34:08.770Z,98987.11
2023-11-15T14:36:16.058Z,98996.48
2023-11-15T14:38:20.710Z,99008.31
2023-11-15T14:40:25.725Z,99011.58
2023-11-15T14:42:30.403Z,99020.30
2023-11-15T14:44:35.057Z,99028.92
2023-11-15T14:46:39.929Z,99036.44
2023-11-15T14:48:44.670Z,99037.49
2023-11-15T14:50:49.718Z,99050.17
2023-11-15T14:52:54.383Z,99042.36
2023-11-15T14:54:59.004Z,99041.84
2023-11-15T14:57:05.781Z,99045.56
2023-11-15T14:59:10.395Z,99048.07
2023-11-15T15:01:15.579Z,99060.02
2023-11-15T15:03:20.554Z,99065.75
2023-11-15T15:05:25.641Z,99069.23
2023-11-15T15:07:30.328Z,99076.59
2023-11-15T15:09:37.836Z,99077.52
2023-11-15T15:11:42.594Z,99081.30
2023-11-15T15:13:47.340Z,99085.50
2023-11-15T15:15:51.993Z,99083.23
2023-11-15T15:17:56.740Z,99092.43
2023-11-15T15:20:01.398Z,99092.66
2023-11-15T15:22:06.441Z,99089.67
2023-11-15T15:24:11.776Z,99090.20
2023-11-15T15:26:18.424Z,99091.13
2023-11-15T15:28:25.290Z,99091.48
2023-11-15T15:30:30.208Z,99095.84
2023-11-15T15:32:36.423Z,99094.96
2023-11-15T15:34:41.102Z,99098.73
2023-11-15T15:36:45.843Z,99105.79
2023-11-15T15:38:50.495Z,99100.61
2023-11-15T15:40:55.208Z,99098.31
2023-11-15T15:42:59.880Z,99104.52
2023-11-15T15:45:06.880Z,99110.16
2023-11-15T15:47:11.569Z,99113.11
2023-11-15T15:49:16.348Z,99112.19
2023-11-15T15:51:21.040Z,99117.83
2023-11-15T15:53:25.693Z,99121.62
2023-11-15T15:55:33.505Z,99126.73
2023-11-15T15:57:38.269Z,99133.59
2023-11-15T15:59:42.968Z,99132.90
2023-11-15T16:01:47.906Z,99137.36
2023-11-15T16:03:52.814Z,99136.71
2023-11-15T16:05:57.643Z,99138.27
2023-11-15T16:08:02.425Z,99142.02
2023-11-15T16:10:08.989Z,99148.36
2023-11-15T16:12:13.770Z,99146.64
2023-11-15T16:14:18.616Z,99148.25
2023-11-15T16:16:23.331Z,99153.31
2023-11-15T16:18:28.052Z,99159.73
2023-11-15T16:20:32.741Z,99167.64
2023-11-15T16:22:37.403Z,99175.17
2023-11-15T16:24:42.473Z,99169.97
2023-11-15T16:26:47.235Z,99171.26
2023-11-15T16:28:52.039Z,99180.21
2023-11-15T16:30:56.852Z,99180.68
2023-11-15T16:33:04.667Z,99184.64
2023-11-15T16:35:10.195Z,99185.19
2023-11-15T16:37:14.917Z,99190.62
2023-11-15T16:39:19.634Z,99193.71
2023-11-15T16:41:24.525Z,99195.42
2023-11-15T16:43:29.232Z,99198.64
2023-11-15T16:45:36.690Z,99201.23
2023-11-15T16:47:42.196Z,99194.55
2023-11-15T16:49:46.922Z,99196.23
2023-11-15T16:51:51.866Z,99196.95
2023-11-15T16:53:56.933Z,99206.26
2023-11-15T16:56:01.630Z,99203.45
2023-11-15T16:58:06.257Z,99211.89
2023-11-15T17:00:13.024Z,99212.88
2023-11-15T17:02:17.784Z,99213.84
2023-11-15T17:04:22.521Z,99219.18
2023-11-15T17:06:28.098Z,99218.06
2023-11-15T17:08:32.829Z,99223.96
2023-11-15T17:10:37.493Z,99230.89
2023-11-15T17:12:42.187Z,99234.55
2023-11-15T17:14:46.984Z,99238.70
2023-11-15T17:16:51.872Z,99237.05
2023-11-15T17:18:57.024Z,99238.90
2023-11-15T17:21:01.741Z,99244.15
2023-11-15T17:23:06.473Z,99252.90
2023-11-15T17:25:19.260Z,99258.33
2023-11-15T17:27:27.157Z,99263.87
2023-11-15T17:29:32.182Z,99270.39
2023-11-15T17:31:36.908Z,99269.98
2023-11-15T17:33:42.592Z,99274.67
2023-11-15T17:35:47.494Z,99280.83
2023-11-15T17:37:52.258Z,99284.08
2023-11-15T17:39:57.206Z,99288.55
2023-11-15T17:42:02.059Z,99290.48
2023-11-15T17:44:09.720Z,99299.07
2023-11-15T17:46:16.528Z,99296.40
2023-11-15T17:48:21.455Z,99292.21
2023-11-15T17:50:26.240Z,99288.11
2023-11-15T17:52:31.136Z,99292.38
2023-11-15T17:54:37.264Z,99292.25
2023-11-15T17:56:42.632Z,99293.91
2023-11-15T17:58:47.687Z,99288.99
2023-11-15T18:00:52.994Z,99294.49
2023-11-15T18:02:57.930Z,99294.48
2023-11-15T18:05:03.218Z,99298.29
2023-11-15T18:07:08.192Z,99299.42
2023-11-15T18:09:13.164Z,99299.91
2023-11-15T18:11:18.335Z,99302.42
2023-11-15T18:13:23.052Z,99304.81
2023-11-15T18:15:27.849Z,99309.38
2023-11-15T18:17:32.655Z,99310.20
2023-11-15T18:19:37.656Z,99316.49
2023-11-15T18:21:42.657Z,99309.52
2023-11-15T18:23:47.642Z,99312.35
2023-11-15T18:25:54.636Z,99311.00
2023-11-15T18:28:00.881Z,99315.93
2023-11-15T18:30:09.230Z,99314.98
2023-11-15T18:32:17.324Z,99311.02
2023-11-15T18:34:24.635Z,99316.84
2023-11-15T18:36:32.054Z,99318.64
2023-11-15T18:38:38.705Z,99327.95
2023-11-15T18:40:47.693Z,99321.56
2023-11-15T18:42:54.261Z,99323.73
2023-11-15T18:45:01.234Z,99322.63
2023-11-15T18:47:11.044Z,99323.13
2023-11-15T18:49:17.880Z,99320.00
2023-11-15T18:51:23.806Z,99323.58
2023-11-15T18:53:30.121Z,99327.39
2023-11-15T18:55:35.898Z,99324.48
2023-11-15T18:57:41.801Z,99327.02
2023-11-15T18:59:50.297Z,99325.27
2023-11-15T19:01:56.466Z,99326.33
2023-11-15T19:04:02.644Z,99328.70
2023-11-15T19:06:10.308Z,99330.77
2023-11-15T19:08:17.038Z,99331.05
2023-11-15T19:10:24.420Z,99333.83
2023-11-15T19:12:31.559Z,99336.17
2023-11-15T19:14:39.932Z,99341.46
2023-11-15T19:16:46.727Z,99343.06
2023-11-15T19:18:57.517Z,99339.53
2023-11-15T19:21:04.534Z,99340.84
2023-11-15T19:23:11.596Z,99339.01
2023-11-15T19:25:19.092Z,99336.05
2023-11-15T19:27:27.058Z,99340.84
2023-11-15T19:29:34.468Z,99334.77
2023-11-15T19:31:41.627Z,99329.36
2023-11-15T19:33:53.142Z,99330.50
2023-11-15T19:36:00.269Z,99335.77
2023-11-15T19:38:07.912Z,99344.66
2023-11-15T19:40:16.790Z,99340.02
2023-11-15T19:42:29.554Z,99345.92
2023-11-15T19:44:37.422Z,99342.40
2023-11-15T19:46:45.090Z,99343.50
2023-11-15T19:48:53.424Z,99349.17
2023-11-15T19:51:01.371Z,99349.33
2023-11-15T19:53:12.784Z,99352.60
2023-11-15T19:55:24.661Z,99355.63
2023-11-15T19:57:33.205Z,99360.27
2023-11-15T19:59:43.737Z,99359.11
2023-11-15T20:01:54.229Z,99359.20
2023-11-15T20:04:04.491Z,99360.89
2023-11-15T20:06:12.981Z,99365.27
2023-11-15T20:08:20.718Z,99358.42
2023-11-15T20:10:29.405Z,99359.15
2023-11-15T20:12:36.684Z,99358.47
2023-11-15T20:14:44.351Z,99354.08
2023-11-15T20:16:52.505Z,99364.04
2023-11-15T20:19:00.574Z,99363.42
2023-11-15T20:21:07.887Z,99359.45
2023-11-15T20:23:15.351Z,99364.34
2023-11-15T20:25:22.447Z,99366.98
2023-11-15T20:27:29.510Z,99364.49
2023-11-15T20:29:36.177Z,99361.21
2023-11-15T20:31:43.859Z,99359.52
2023-11-15T20:33:51.356Z,99364.42
2023-11-15T20:35:59.190Z,99362.28
2023-11-15T20:38:06.024Z,99362.73
2023-11-15T20:40:14.225Z,99362.12
2023-11-15T20:42:20.308Z,99367.13
2023-11-15T20:44:26.225Z,99365.84
2023-11-15T20:46:33.036Z,99370.20
2023-11-15T20:48:39.044Z,99366.88
2023-11-15T20:50:44.229Z,99370.73
2023-11-15T20:52:49.654Z,99366.00
2023-11-15T20:54:54.973Z,99368.76
2023-11-15T20:56:59.745Z,99374.02
2023-11-15T20:59:04.484Z,99372.98
2023-11-15T21:01:09.500Z,99373.45
2023-11-15T21:03:14.621Z,99378.72
2023-11-15T21:05:19.499Z,99377.44
2023-11-15T21:07:24.281Z,99387.60
2023-11-15T21:09:29.041Z,99389.08
2023-11-15T21:11:33.683Z,99387.56
2023-11-15T21:13:38.879Z,99393.27
2023-11-15T21:15:44.301Z,99396.42
2023-11-15T21:17:49.041Z,99397.08
2023-11-15T21:19:53.797Z,99396.46
2023-11-15T21:21:58.416Z,99397.11
2023-11-15T21:24:03.166Z,99404.30
2023-11-15T21:26:08.399Z,99400.80
2023-11-15T21:28:13.076Z,99403.66
2023-11-15T21:30:18.052Z,99404.95
2023-11-15T21:32:22.853Z,99413.02
2023-11-15T21:34:27.498Z,99411.03
2023-11-15T21:36:32.413Z,99410.92
2023-11-15T21:38:37.842Z,99413.12
2023-11-15T21:40:42.543Z,99414.60
2023-11-15T21:42:48.472Z,99420.59
2023-11-15T21:44:54.001Z,99418.77
2023-11-15T21:47:00.250Z,99417.27
2023-11-15T21:49:05.134Z,99416.90
2023-11-15T21:51:09.805Z,99415.41
2023-11-15T21:53:14.491Z,99418.45
2023-11-15T21:55:19.363Z,99422.10
2023-11-15T21:57:24.154Z,99422.59
2023-11-15T21:59:28.840Z,99413.48
2023-11-15T22:01:33.519Z,99416.46
2023-11-15T22:03:38.224Z,99413.96
2023-11-15T22:05:42.900Z,99424.94
2023-11-15T22:07:47.543Z,99430.39
2023-11-15T22:09:52.255Z,99435.10
2023-11-15T22:11:56.964Z,99438.30
2023-11-15T22:14:01.606Z,99439.48
2023-11-15T22:16:07.504Z,99440.55
2023-11-15T22:18:12.322Z,99447.19
2023-11-15T22:20:17.116Z,99450.07
2023-11-15T22:22:21.749Z,99454.06
2023-11-15T22:24:26.523Z,99455.73
2023-11-15T22:26:31.155Z,99455.26
2023-11-15T22:28:35.882Z,99458.74
2023-11-15T22:30:40.539Z,99457.19
2023-11-15T22:32:45.259Z,99456.49
2023-11-15T22:34:50.013Z,99458.14
2023-11-15T22:36:54.633Z,99455.36
2023-11-15T22:38:59.280Z,99453.42
2023-11-15T22:41:04.188Z,99453.08
2023-11-15T22:43:08.954Z,99458.70
2023-11-15T22:45:14.017Z,99454.44
2023-11-15T22:47:18.682Z,99455.67
2023-11-15T22:49:23.326Z,99459.70
2023-11-15T22:51:27.966Z,99461.58
2023-11-15T22:53:32.668Z,99461.17
2023-11-15T22:55:37.292Z,99458.94
2023-11-15T22:57:42.032Z,99460.12
2023-11-15T22:59:47.682Z,99454.51
2023-11-15T23:01:54.595Z,99453.93
2023-11-15T23:04:02.490Z,99448.56
2023-11-15T23:06:08.345Z,99455.83
2023-11-15T23:08:13.065Z,99456.60
2023-11-15T23:10:17.756Z,99450.81
2023-11-15T23:12:25.556Z,99453.93
2023-11-15T23:14:30.197Z,99450.04
2023-11-15T23:16:34.976Z,99451.73
2023-11-15T23:18:42.646Z,99444.42
2023-11-15T23:20:47.975Z,99439.52
2023-11-15T23:22:52.613Z,99439.17
2023-11-15T23:24:57.386Z,99440.27
2023-11-15T23:27:02.141Z,99437.87
2023-11-15T23:29:06.818Z,99443.05
2023-11-15T23:31:11.548Z,99436.27
2023-11-15T23:33:16.299Z,99439.47
2023-11-15T23:35:21.382Z,99435.29
2023-11-15T23:37:26.246Z,99441.47
2023-11-15T23:39:30.951Z,99440.66
2023-11-15T23:41:35.581Z,99441.36
2023-11-15T23:43:40.315Z,99443.41
2023-11-15T23:45:45.000Z,99443.33
2023-11-15T23:47:49.872Z,99449.48
2023-11-15T23:49:54.501Z,99436.15
2023-11-15T23:51:59.172Z,99434.95
2023-11-15T23:54:04.186Z,99429.90
2023-11-15T23:56:09.931Z,99431.58
2023-11-15T23:58:14.790Z,99431.18
